Time;durP1;ratioP1;P1;durP2;ratioP2;P2;SDS_P1;SDS_P2;PMS_P1;PMS_P2;Temp;Humidity;BMP_temperature;BMP_pressure;BME280_temperature;BME280_humidity;BME280_pressure;Samples;Min_cycle;Max_cycle;Signal;HPM_P1;HPM_P2
2021/08/14 00:02:51;;;;;;;20.27;9.48;;;;;;;;;;20913328;28;20056;-61
2021/08/14 00:12:53;;;;;;;22.10;9.80;;;;;;;;;;20914334;28;20076;-61
2021/08/14 00:22:58;;;;;;;29.17;9.88;;;;;;;;;;20914416;28;20048;-62
2021/08/14 00:32:59;;;;;;;23.02;11.45;;;;;;;;;;20913461;28;20081;-61
2021/08/14 00:43:04;;;;;;;24.30;8.32;;;;;;;;;;20912349;28;20067;-64
2021/08/14 00:53:06;;;;;;;22.80;8.32;;;;;;;;;;20913330;28;20053;-61
2021/08/14 01:03:08;;;;;;;24.40;9.43;;;;;;;;;;20912182;28;20429;-62
2021/08/14 01:13:11;;;;;;;24.13;8.15;;;;;;;;;;20914538;28;20485;-61
2021/08/14 01:23:13;;;;;;;27.20;8.43;;;;;;;;;;20927972;28;20505;-62
2021/08/14 01:33:14;;;;;;;22.15;8.68;;;;;;;;;;20926901;28;20056;-62
2021/08/14 01:43:23;;;;;;;25.58;9.18;;;;;;;;;;20926030;28;20049;-59
2021/08/14 01:53:34;;;;;;;20.13;8.70;;;;;;;;;;20925365;28;20041;-61
2021/08/14 02:03:39;;;;;;;18.25;8.85;;;;;;;;;;20924531;28;20060;-61
2021/08/14 02:13:48;;;;;;;21.80;7.90;;;;;;;;;;20924753;28;20049;-61
2021/08/14 02:23:56;;;;;;;21.07;8.43;;;;;;;;;;20921859;28;20080;-61
2021/08/14 02:34:01;;;;;;;21.13;8.95;;;;;;;;;;20922876;28;20095;-63
2021/08/14 02:44:14;;;;;;;25.77;9.05;;;;;;;;;;20922795;28;20045;-61
2021/08/14 02:54:24;;;;;;;28.08;9.77;;;;;;;;;;20927497;28;20052;-62
2021/08/14 03:04:29;;;;;;;20.60;7.90;;;;;;;;;;20920333;28;20063;-63
2021/08/14 03:14:51;;;;;;;24.50;8.63;;;;;;;;;;20919350;28;20091;-60
2021/08/14 03:25:13;;;;;;;17.77;7.15;;;;;;;;;;20918087;28;20048;-60
2021/08/14 03:35:24;;;;;;;22.77;8.02;;;;;;;;;;20917322;28;20045;-61
2021/08/14 03:45:35;;;;;;;22.63;8.73;;;;;;;;;;20916996;28;20057;-62
2021/08/14 03:55:43;;;;;;;22.42;8.63;;;;;;;;;;20915997;28;20417;-66
2021/08/14 04:05:48;;;;;;;23.25;9.38;;;;;;;;;;20914314;28;20430;-62
2021/08/14 04:15:54;;;;;;;20.35;7.90;;;;;;;;;;20915122;28;20045;-61
2021/08/14 04:26:00;;;;;;;23.13;8.18;;;;;;;;;;20915164;28;20505;-62
2021/08/14 04:36:06;;;;;;;20.63;8.07;;;;;;;;;;20914065;28;20053;-61
2021/08/14 04:46:11;;;;;;;26.60;8.73;;;;;;;;;;20912795;28;20048;-65
2021/08/14 04:56:15;;;;;;;20.50;9.25;;;;;;;;;;20912324;28;20049;-63
2021/08/14 05:06:17;;;;;;;21.88;8.25;;;;;;;;;;20912145;28;20044;-64
2021/08/14 05:16:24;;;;;;;22.77;8.40;;;;;;;;;;20912387;28;20472;-62
2021/08/14 05:26:27;;;;;;;19.55;8.13;;;;;;;;;;20911047;28;20095;-62
2021/08/14 05:36:30;;;;;;;17.65;8.98;;;;;;;;;;20911497;28;20493;-69
2021/08/14 05:46:32;;;;;;;22.05;8.95;;;;;;;;;;20911346;28;20045;-62
2021/08/14 05:56:36;;;;;;;25.52;9.32;;;;;;;;;;20910739;28;20052;-64
2021/08/14 06:06:43;;;;;;;19.80;8.90;;;;;;;;;;20922589;28;20091;-60
2021/08/14 06:16:45;;;;;;;26.27;8.75;;;;;;;;;;20925189;28;20456;-64
2021/08/14 06:26:47;;;;;;;19.00;10.52;;;;;;;;;;20923540;28;20145;-60
2021/08/14 06:36:49;;;;;;;21.50;8.98;;;;;;;;;;20922364;28;20041;-61
2021/08/14 06:46:53;;;;;;;22.40;8.70;;;;;;;;;;20920602;28;20057;-65
2021/08/14 06:56:55;;;;;;;22.08;9.48;;;;;;;;;;20921483;28;20416;-61
2021/08/14 07:06:57;;;;;;;24.25;8.30;;;;;;;;;;20920173;28;20045;-62
2021/08/14 07:17:01;;;;;;;24.10;9.40;;;;;;;;;;20918935;28;20049;-62
2021/08/14 07:27:04;;;;;;;20.63;9.32;;;;;;;;;;20918071;28;20089;-69
2021/08/14 07:37:07;;;;;;;30.65;8.38;;;;;;;;;;20917610;28;20538;-69
2021/08/14 07:47:09;;;;;;;28.20;8.25;;;;;;;;;;20915579;28;20451;-69
2021/08/14 07:57:12;;;;;;;23.88;7.50;;;;;;;;;;20915258;28;20048;-63
2021/08/14 08:07:15;;;;;;;25.05;8.35;;;;;;;;;;20915428;28;20048;-61
2021/08/14 08:17:19;;;;;;;20.27;7.43;;;;;;;;;;20914869;28;20049;-68
2021/08/14 08:27:23;;;;;;;19.33;5.85;;;;;;;;;;20912332;28;20048;-66
2021/08/14 08:37:26;;;;;;;24.08;8.05;;;;;;;;;;20912267;28;20094;-66
2021/08/14 08:47:30;;;;;;;25.27;6.43;;;;;;;;;;20911237;28;20049;-68
2021/08/14 08:57:32;;;;;;;20.70;6.55;;;;;;;;;;20911076;28;20053;-61
2021/08/14 09:07:34;;;;;;;24.27;7.10;;;;;;;;;;20911949;28;20048;-65
2021/08/14 09:17:36;;;;;;;32.58;7.07;;;;;;;;;;20911176;28;20045;-69
2021/08/14 09:27:53;;;;;;;21.13;7.20;;;;;;;;;;20911122;28;20065;-69
2021/08/14 09:38:02;;;;;;;23.48;8.13;;;;;;;;;;20924800;28;20049;-64
2021/08/14 09:48:15;;;;;;;23.27;6.93;;;;;;;;;;20955319;28;20052;-62
2021/08/14 09:58:24;;;;;;;20.90;6.93;;;;;;;;;;20983471;28;20085;-67
2021/08/14 10:08:27;;;;;;;28.43;6.93;;;;;;;;;;20941235;28;20413;-61
2021/08/14 10:18:29;;;;;;;27.65;7.93;;;;;;;;;;20923934;28;20048;-62
2021/08/14 10:28:47;;;;;;;27.45;7.22;;;;;;;;;;20921957;28;20485;-63
2021/08/14 10:38:50;;;;;;;28.02;9.05;;;;;;;;;;20921876;28;20501;-66
2021/08/14 10:48:55;;;;;;;24.08;7.63;;;;;;;;;;20920104;28;20084;-62
2021/08/14 10:58:56;;;;;;;29.00;8.10;;;;;;;;;;20922200;28;20514;-63
2021/08/14 11:09:16;;;;;;;27.73;9.32;;;;;;;;;;20919508;28;20080;-62
2021/08/14 11:19:38;;;;;;;16.83;7.22;;;;;;;;;;20918358;28;20122;-69
2021/08/14 11:29:41;;;;;;;23.13;7.72;;;;;;;;;;20917218;28;20057;-62
2021/08/14 11:39:44;;;;;;;26.85;7.47;;;;;;;;;;20917461;28;20466;-63
2021/08/14 11:49:56;;;;;;;21.58;8.02;;;;;;;;;;20916154;28;20142;-64
2021/08/14 11:59:59;;;;;;;21.13;7.43;;;;;;;;;;20915550;28;20131;-61
2021/08/14 12:10:01;;;;;;;17.05;7.38;;;;;;;;;;20915037;28;20103;-63
2021/08/14 12:20:03;;;;;;;20.90;6.82;;;;;;;;;;20913074;28;20494;-62
2021/08/14 12:30:15;;;;;;;21.95;7.80;;;;;;;;;;20911588;28;20052;-63
2021/08/14 12:40:21;;;;;;;20.83;7.68;;;;;;;;;;20911116;28;20083;-62
2021/08/14 12:50:26;;;;;;;21.30;7.07;;;;;;;;;;20909088;28;20045;-63
2021/08/14 13:00:28;;;;;;;24.08;8.45;;;;;;;;;;20909865;28;20045;-65
2021/08/14 13:10:30;;;;;;;21.92;6.85;;;;;;;;;;20915087;28;20523;-61
2021/08/14 13:20:32;;;;;;;16.33;6.85;;;;;;;;;;20926902;28;20133;-67
2021/08/14 13:30:34;;;;;;;20.38;7.63;;;;;;;;;;20925237;28;20387;-63
2021/08/14 13:40:37;;;;;;;24.20;8.15;;;;;;;;;;20925184;28;20258;-67
2021/08/14 13:50:39;;;;;;;23.08;7.03;;;;;;;;;;20923800;28;20085;-65
2021/08/14 14:00:42;;;;;;;20.25;6.78;;;;;;;;;;20922987;28;20072;-64
2021/08/14 14:10:44;;;;;;;22.05;6.57;;;;;;;;;;20922582;28;20057;-62
2021/08/14 14:20:46;;;;;;;20.23;6.70;;;;;;;;;;20921285;28;20508;-65
2021/08/14 14:30:48;;;;;;;18.20;7.10;;;;;;;;;;20920162;28;20063;-64
2021/08/14 14:40:50;;;;;;;19.73;7.30;;;;;;;;;;20919753;28;20056;-65
2021/08/14 14:50:52;;;;;;;18.52;6.95;;;;;;;;;;20919429;28;20048;-63
2021/08/14 15:00:54;;;;;;;19.85;6.35;;;;;;;;;;20918294;28;20398;-64
2021/08/14 15:10:57;;;;;;;24.15;6.25;;;;;;;;;;20918600;28;20052;-63
2021/08/14 15:20:59;;;;;;;23.48;7.25;;;;;;;;;;20917999;28;20123;-62
2021/08/14 15:31:01;;;;;;;21.23;6.68;;;;;;;;;;20915173;28;20143;-63
2021/08/14 15:41:06;;;;;;;18.65;6.47;;;;;;;;;;20916440;28;20485;-65
2021/08/14 15:51:08;;;;;;;20.38;6.07;;;;;;;;;;20915888;28;20500;-64
2021/08/14 16:01:10;;;;;;;20.02;6.40;;;;;;;;;;20914920;28;20425;-66
2021/08/14 16:11:13;;;;;;;22.70;6.75;;;;;;;;;;20913038;28;20044;-63
2021/08/14 16:21:16;;;;;;;21.20;6.85;;;;;;;;;;20914223;28;20053;-63
2021/08/14 16:31:18;;;;;;;18.73;6.05;;;;;;;;;;20912790;28;20600;-63
2021/08/14 16:41:20;;;;;;;19.80;6.30;;;;;;;;;;20913067;28;20072;-63
2021/08/14 16:51:22;;;;;;;21.52;6.63;;;;;;;;;;20911450;28;20478;-64
2021/08/14 17:01:25;;;;;;;19.38;5.85;;;;;;;;;;20913548;28;20078;-62
2021/08/14 17:11:27;;;;;;;19.67;6.13;;;;;;;;;;20910372;28;20048;-64
2021/08/14 17:21:30;;;;;;;18.85;5.60;;;;;;;;;;20911661;28;20413;-63
2021/08/14 17:31:33;;;;;;;17.23;5.35;;;;;;;;;;20908492;28;20103;-63
2021/08/14 17:41:35;;;;;;;16.67;4.55;;;;;;;;;;20907771;28;20556;-64
2021/08/14 17:51:38;;;;;;;21.77;5.68;;;;;;;;;;20907734;28;20094;-65
2021/08/14 18:01:40;;;;;;;22.63;6.13;;;;;;;;;;20919433;28;20045;-64
2021/08/14 18:11:42;;;;;;;20.90;6.30;;;;;;;;;;20921134;28;20154;-62
2021/08/14 18:21:44;;;;;;;16.65;5.22;;;;;;;;;;20922101;28;20051;-63
2021/08/14 18:31:46;;;;;;;18.02;5.45;;;;;;;;;;20920066;28;20130;-61
2021/08/14 18:41:49;;;;;;;17.73;5.53;;;;;;;;;;20920313;28;20136;-63
2021/08/14 18:51:51;;;;;;;21.90;5.22;;;;;;;;;;20920059;28;20060;-68
2021/08/14 19:01:53;;;;;;;15.57;4.90;;;;;;;;;;20918828;28;20045;-63
2021/08/14 19:11:55;;;;;;;21.15;5.38;;;;;;;;;;20917031;28;20477;-63
2021/08/14 19:21:57;;;;;;;18.25;5.68;;;;;;;;;;20918241;28;20071;-62
2021/08/14 19:31:59;;;;;;;15.10;5.05;;;;;;;;;;20916587;28;20386;-64
2021/08/14 19:42:03;;;;;;;14.70;5.13;;;;;;;;;;20917120;28;20049;-64
2021/08/14 19:52:05;;;;;;;19.77;6.35;;;;;;;;;;20916240;28;20053;-65
2021/08/14 20:02:08;;;;;;;15.32;5.60;;;;;;;;;;20915176;28;20041;-64
2021/08/14 20:12:10;;;;;;;13.48;5.53;;;;;;;;;;20914730;28;20056;-62
2021/08/14 20:22:12;;;;;;;16.75;6.03;;;;;;;;;;20913049;28;20052;-61
2021/08/14 20:32:14;;;;;;;16.50;7.28;;;;;;;;;;20913028;28;20144;-61
2021/08/14 20:42:18;;;;;;;16.85;6.38;;;;;;;;;;20912546;28;20059;-64
2021/08/14 20:52:20;;;;;;;19.00;6.93;;;;;;;;;;20912767;28;20072;-63
2021/08/14 21:02:22;;;;;;;15.73;6.40;;;;;;;;;;20912137;28;20048;-62
2021/08/14 21:12:25;;;;;;;17.23;6.43;;;;;;;;;;20911759;28;20056;-67
2021/08/14 21:22:27;;;;;;;18.50;6.75;;;;;;;;;;20911772;28;20509;-62
2021/08/14 21:32:29;;;;;;;19.75;6.43;;;;;;;;;;20917629;28;20440;-62
2021/08/14 21:42:31;;;;;;;17.83;5.97;;;;;;;;;;20927590;28;20060;-62
2021/08/14 21:52:33;;;;;;;11.27;5.68;;;;;;;;;;20925175;28;20056;-62
2021/08/14 22:02:35;;;;;;;11.02;4.65;;;;;;;;;;20926028;28;20077;-62
2021/08/14 22:12:38;;;;;;;8.32;3.80;;;;;;;;;;20924447;28;20053;-63
2021/08/14 22:22:42;;;;;;;12.48;4.35;;;;;;;;;;20923723;28;20410;-62
2021/08/14 22:32:44;;;;;;;14.35;5.32;;;;;;;;;;20922832;28;20087;-62
2021/08/14 22:42:47;;;;;;;10.25;5.20;;;;;;;;;;20924029;28;20045;-62
2021/08/14 22:52:49;;;;;;;15.98;5.32;;;;;;;;;;20920400;28;20049;-64
2021/08/14 23:02:52;;;;;;;12.77;5.70;;;;;;;;;;20919856;28;20049;-63
2021/08/14 23:12:56;;;;;;;12.07;5.15;;;;;;;;;;20918377;28;20076;-61
2021/08/14 23:22:59;;;;;;;11.73;5.18;;;;;;;;;;20918115;28;20053;-63
2021/08/14 23:33:03;;;;;;;14.27;6.30;;;;;;;;;;20918882;28;20064;-62
2021/08/14 23:43:06;;;;;;;16.63;5.97;;;;;;;;;;20917679;28;20048;-63
2021/08/14 23:53:09;;;;;;;13.75;5.43;;;;;;;;;;20916556;28;20416;-62
